createdAt,value
2023-05-12T00:00:35.300Z,99143.50
2023-05-12T00:03:04.519Z,99134.06
2023-05-12T00:05:33.125Z,99137.34
2023-05-12T00:08:02.822Z,99139.50
2023-05-12T00:10:31.198Z,99147.81
2023-05-12T00:12:59.696Z,99144.22
2023-05-12T00:15:28.028Z,99140.59
2023-05-12T00:17:56.435Z,99143.09
2023-05-12T00:20:24.736Z,99143.88
2023-05-12T00:22:53.039Z,99147.50
2023-05-12T00:25:22.846Z,99140.31
2023-05-12T00:27:51.182Z,99145.34
2023-05-12T00:30:19.977Z,99141.56
2023-05-12T00:32:48.589Z,99130.78
2023-05-12T00:35:17.924Z,99139.44
2023-05-12T00:37:46.349Z,99138.59
2023-05-12T00:40:14.904Z,99136.94
2023-05-12T00:42:44.753Z,99138.91
2023-05-12T00:45:13.513Z,99133.69
2023-05-12T00:47:41.889Z,99142.50
2023-05-12T00:50:11.905Z,99149.72
2023-05-12T00:52:40.366Z,99138.59
2023-05-12T00:55:09.943Z,99150.53
2023-05-12T00:57:38.287Z,99148.28
2023-05-12T01:00:12.348Z,99141.88
2023-05-12T01:02:41.604Z,99147.13
2023-05-12T01:05:11.419Z,99150.22
2023-05-12T01:07:41.766Z,99148.56
2023-05-12T01:10:20.283Z,99148.38
2023-05-12T01:12:49.242Z,99147.56
2023-05-12T01:15:19.858Z,99150.66
2023-05-12T01:17:56.218Z,99150.66
2023-05-12T01:20:27.977Z,99157.34
2023-05-12T01:22:56.739Z,99156.22
2023-05-12T01:25:26.127Z,99154.88
2023-05-12T01:27:56.359Z,99161.38
2023-05-12T01:30:25.679Z,99162.63
2023-05-12T01:32:54.707Z,99168.31
2023-05-12T01:35:23.155Z,99160.63
2023-05-12T01:37:52.006Z,99161.22
2023-05-12T01:40:21.312Z,99161.34
2023-05-12T01:42:50.765Z,99159.00
2023-05-12T01:45:20.698Z,99166.94
2023-05-12T01:47:49.044Z,99159.03
2023-05-12T01:50:17.873Z,99165.53
2023-05-12T01:52:46.351Z,99160.41
2023-05-12T01:55:14.688Z,99158.56
2023-05-12T01:57:42.987Z,99153.13
2023-05-12T02:00:13.460Z,99157.13
2023-05-12T02:02:43.921Z,99168.81
2023-05-12T02:05:12.702Z,99166.47
2023-05-12T02:07:41.027Z,99156.63
2023-05-12T02:10:10.763Z,99155.91
2023-05-12T02:12:39.137Z,99163.19
2023-05-12T02:15:11.603Z,99161.34
2023-05-12T02:17:39.985Z,99161.66
2023-05-12T02:20:12.301Z,99163.41
2023-05-12T02:22:40.712Z,99164.81
2023-05-12T02:25:10.455Z,99165.16
2023-05-12T02:27:38.831Z,99167.41
2023-05-12T02:30:09.259Z,99163.81
2023-05-12T02:32:38.104Z,99169.97
2023-05-12T02:35:09.680Z,99170.59
2023-05-12T02:37:38.027Z,99169.53
2023-05-12T02:40:08.510Z,99164.09
2023-05-12T02:42:38.521Z,99171.88
2023-05-12T02:45:08.831Z,99167.78
2023-05-12T02:47:37.254Z,99173.63
2023-05-12T02:50:06.850Z,99172.00
2023-05-12T02:52:36.542Z,99169.53
2023-05-12T02:55:05.328Z,99181.75
2023-05-12T02:57:34.275Z,99175.38
2023-05-12T03:00:04.946Z,99176.81
2023-05-12T03:02:33.382Z,99180.69
2023-05-12T03:05:02.057Z,99177.72
2023-05-12T03:07:30.664Z,99181.94
2023-05-12T03:10:01.684Z,99177.50
2023-05-12T03:12:30.023Z,99181.41
2023-05-12T03:14:58.653Z,99182.53
2023-05-12T03:17:27.290Z,99175.34
2023-05-12T03:19:55.700Z,99181.50
2023-05-12T03:22:24.119Z,99178.53
2023-05-12T03:24:52.790Z,99178.81
2023-05-12T03:27:23.008Z,99185.19
2023-05-12T03:29:51.910Z,99174.41
2023-05-12T03:32:20.472Z,99171.09
2023-05-12T03:34:48.755Z,99174.16
2023-05-12T03:37:17.318Z,99175.56
2023-05-12T03:39:45.617Z,99172.59
2023-05-12T03:42:14.740Z,99172.09
2023-05-12T03:44:44.785Z,99181.81
2023-05-12T03:47:13.749Z,99182.66
2023-05-12T03:49:42.129Z,99174.34
2023-05-12T03:52:10.457Z,99177.13
2023-05-12T03:54:38.770Z,99178.75
2023-05-12T03:57:08.272Z,99180.09
2023-05-12T03:59:36.537Z,99177.31
2023-05-12T04:02:07.827Z,99174.22
2023-05-12T04:04:36.865Z,99177.00
2023-05-12T04:07:05.514Z,99181.44
2023-05-12T04:09:34.283Z,99180.59
2023-05-12T04:12:02.630Z,99185.84
2023-05-12T04:14:41.630Z,99194.16
2023-05-12T04:17:12.385Z,99196.09
2023-05-12T04:19:40.689Z,99197.22
2023-05-12T04:22:08.971Z,99194.75
2023-05-12T04:24:39.377Z,99196.69
2023-05-12T04:27:08.108Z,99201.72
2023-05-12T04:29:37.098Z,99202.03
2023-05-12T04:32:06.294Z,99203.97
2023-05-12T04:34:36.089Z,99206.44
2023-05-12T04:37:04.529Z,99203.38
2023-05-12T04:39:32.816Z,99218.03
2023-05-12T04:42:02.372Z,99218.84
2023-05-12T04:44:30.702Z,99213.31
2023-05-12T04:46:58.993Z,99212.50
2023-05-12T04:49:27.240Z,99214.97
2023-05-12T04:51:56.988Z,99220.19
2023-05-12T04:54:25.328Z,99215.19
2023-05-12T04:56:54.962Z,99219.09
2023-05-12T04:59:23.249Z,99223.81
2023-05-12T05:01:51.929Z,99227.41
2023-05-12T05:04:20.884Z,99224.63
2023-05-12T05:06:49.125Z,99219.88
2023-05-12T05:09:18.972Z,99223.16
2023-05-12T05:11:48.130Z,99220.13
2023-05-12T05:14:16.477Z,99230.88
2023-05-12T05:16:45.403Z,99211.22
2023-05-12T05:19:21.198Z,99218.41
2023-05-12T05:21:53.932Z,99217.59
2023-05-12T05:24:24.444Z,99226.22
2023-05-12T05:26:52.756Z,99221.50
2023-05-12T05:29:21.117Z,99217.03
2023-05-12T05:31:49.522Z,99223.44
2023-05-12T05:34:18.653Z,99218.72
2023-05-12T05:36:47.281Z,99225.63
2023-05-12T05:39:15.716Z,99223.03
2023-05-12T05:41:45.432Z,99224.72
2023-05-12T05:44:13.719Z,99221.31
2023-05-12T05:46:42.040Z,99228.19
2023-05-12T05:49:10.387Z,99227.06
2023-05-12T05:51:38.799Z,99234.56
2023-05-12T05:54:07.307Z,99226.56
2023-05-12T05:56:36.145Z,99221.31
2023-05-12T05:59:06.395Z,99224.38
2023-05-12T06:01:34.859Z,99226.31
2023-05-12T06:04:03.599Z,99222.72
2023-05-12T06:06:32.139Z,99223.56
2023-05-12T06:09:00.666Z,99221.94
2023-05-12T06:11:29.095Z,99235.47
2023-05-12T06:13:57.400Z,99236.31
2023-05-12T06:16:27.164Z,99246.25
2023-05-12T06:18:55.577Z,99254.53
2023-05-12T06:21:23.958Z,99253.75
2023-05-12T06:23:52.441Z,99250.66
2023-05-12T06:26:21.404Z,99257.03
2023-05-12T06:28:50.068Z,99258.16
2023-05-12T06:31:18.463Z,99252.91
2023-05-12T06:33:48.648Z,99256.22
2023-05-12T06:36:16.975Z,99255.28
2023-05-12T06:38:45.289Z,99255.81
2023-05-12T06:41:13.599Z,99257.75
2023-05-12T06:43:41.929Z,99251.38
2023-05-12T06:46:10.792Z,99260.53
2023-05-12T06:48:39.191Z,99253.03
2023-05-12T06:51:09.438Z,99261.03
2023-05-12T06:53:38.247Z,99253.56
2023-05-12T06:56:07.126Z,99260.44
2023-05-12T06:58:36.307Z,99260.44
2023-05-12T07:01:04.825Z,99252.66
2023-05-12T07:03:34.382Z,99255.13
2023-05-12T07:06:02.840Z,99257.91
2023-05-12T07:08:32.664Z,99256.25
2023-05-12T07:11:01.599Z,99263.22
2023-05-12T07:13:30.219Z,99265.16
2023-05-12T07:15:58.665Z,99264.88
2023-05-12T07:18:27.364Z,99264.88
2023-05-12T07:20:55.900Z,99256.56
2023-05-12T07:23:24.445Z,99255.13
2023-05-12T07:25:54.462Z,99256.44
2023-05-12T07:28:22.827Z,99257.19
2023-05-12T07:30:51.294Z,99253.00
2023-05-12T07:33:19.818Z,99259.06
2023-05-12T07:35:48.296Z,99258.75
2023-05-12T07:38:17.541Z,99255.97
2023-05-12T07:40:46.180Z,99271.16
2023-05-12T07:43:17.480Z,99265.03
2023-05-12T07:45:46.670Z,99262.25
2023-05-12T07:48:15.222Z,99271.69
2023-05-12T07:50:43.995Z,99274.44
2023-05-12T07:53:12.419Z,99279.41
2023-05-12T07:55:41.266Z,99279.09
2023-05-12T07:58:09.684Z,99281.47
2023-05-12T08:00:39.624Z,99286.63
2023-05-12T08:03:08.229Z,99281.50
2023-05-12T08:05:36.809Z,99285.91
2023-05-12T08:08:05.417Z,99290.84
2023-05-12T08:10:34.026Z,99290.53
2023-05-12T08:13:02.387Z,99292.19
2023-05-12T08:15:30.756Z,99291.38
2023-05-12T08:18:00.616Z,99290.44
2023-05-12T08:20:29.097Z,99296.41
2023-05-12T08:22:57.516Z,99296.00
2023-05-12T08:25:27.920Z,99299.81
2023-05-12T08:27:57.572Z,99293.91
2023-05-12T08:30:26.075Z,99300.97
2023-05-12T08:32:55.469Z,99295.00
2023-05-12T08:35:26.224Z,99299.63
2023-05-12T08:37:54.773Z,99296.44
2023-05-12T08:40:25.772Z,99301.38
2023-05-12T08:43:05.522Z,99296.56
2023-05-12T08:45:34.193Z,99291.41
2023-05-12T08:48:04.016Z,99296.31
2023-05-12T08:50:36.726Z,99287.88
2023-05-12T08:53:08.631Z,99297.88
2023-05-12T08:55:37.306Z,99301.28
2023-05-12T08:58:06.429Z,99288.81
2023-05-12T09:00:37.337Z,99296.13
2023-05-12T09:03:08.415Z,99304.06
2023-05-12T09:05:38.705Z,99312.81
2023-05-12T09:08:07.787Z,99314.94
2023-05-12T09:10:36.914Z,99313.84
2023-05-12T09:13:21.352Z,99317.31
2023-05-12T09:15:51.588Z,99325.13
2023-05-12T09:18:20.272Z,99322.41
2023-05-12T09:20:50.387Z,99326.41
2023-05-12T09:23:22.179Z,99330.41
2023-05-12T09:26:01.998Z,99343.63
2023-05-12T09:28:38.632Z,99341.25
2023-05-12T09:31:20.754Z,99347.78
2023-05-12T09:33:49.343Z,99345.63
2023-05-12T09:36:24.554Z,99335.28
2023-05-12T09:39:04.888Z,99338.91
2023-05-12T09:41:36.512Z,99342.72
2023-05-12T09:44:05.652Z,99340.31
2023-05-12T09:46:34.663Z,99342.78
2023-05-12T09:49:05.998Z,99339.31
2023-05-12T09:51:35.984Z,99329.50
2023-05-12T09:54:06.443Z,99336.56
2023-05-12T09:56:39.700Z,99333.13
2023-05-12T09:59:08.599Z,99339.69
2023-05-12T10:01:37.301Z,99343.66
2023-05-12T10:04:09.885Z,99347.28
2023-05-12T10:06:43.394Z,99353.66
2023-05-12T10:09:20.549Z,99345.84
2023-05-12T10:11:52.818Z,99342.75
2023-05-12T10:14:24.909Z,99339.97
2023-05-12T10:16:54.025Z,99339.38
2023-05-12T10:19:23.833Z,99337.66
2023-05-12T10:21:54.661Z,99347.81
2023-05-12T10:24:26.464Z,99349.47
2023-05-12T10:26:56.721Z,99351.13
2023-05-12T10:29:29.934Z,99347.22
2023-05-12T10:31:59.513Z,99354.13
2023-05-12T10:34:34.407Z,99344.88
2023-05-12T10:37:08.467Z,99348.09
2023-05-12T10:39:37.173Z,99353.44
2023-05-12T10:42:08.505Z,99351.03
2023-05-12T10:44:37.839Z,99359.88
2023-05-12T10:47:15.367Z,99349.09
2023-05-12T10:49:43.955Z,99345.78
2023-05-12T10:52:14.643Z,99349.28
2023-05-12T10:54:45.468Z,99352.25
2023-05-12T10:57:18.239Z,99354.34
2023-05-12T10:59:51.528Z,99363.38
2023-05-12T11:02:26.466Z,99365.63
2023-05-12T11:04:59.884Z,99362.88
2023-05-12T11:07:32.797Z,99354.22
2023-05-12T11:10:04.693Z,99355.28
2023-05-12T11:12:36.720Z,99354.63
2023-05-12T11:15:07.672Z,99354.34
2023-05-12T11:17:40.419Z,99356.97
2023-05-12T11:20:10.948Z,99356.59
2023-05-12T11:22:43.455Z,99353.41
2023-05-12T11:25:13.133Z,99368.63
2023-05-12T11:27:49.794Z,99362.22
2023-05-12T11:30:19.917Z,99366.44
2023-05-12T11:32:48.624Z,99361.72
2023-05-12T11:35:20.113Z,99366.13
2023-05-12T11:37:49.981Z,99372.50
2023-05-12T11:40:20.721Z,99367.78
2023-05-12T11:42:54.108Z,99379.50
2023-05-12T11:45:28.657Z,99370.47
2023-05-12T11:48:08.847Z,99373.88
2023-05-12T11:50:40.695Z,99371.91
2023-05-12T11:53:15.138Z,99374.97
2023-05-12T11:55:51.038Z,99384.88
2023-05-12T11:58:27.006Z,99386.00
2023-05-12T12:00:57.210Z,99385.16
2023-05-12T12:03:26.562Z,99398.03
2023-05-12T12:06:02.469Z,99392.56
2023-05-12T12:08:32.618Z,99404.00
2023-05-12T12:11:03.457Z,99399.88
2023-05-12T12:13:32.184Z,99400.69
2023-05-12T12:16:01.050Z,99404.81
2023-05-12T12:18:29.497Z,99397.28
2023-05-12T12:20:57.932Z,99402.56
2023-05-12T12:23:26.378Z,99396.09
2023-05-12T12:25:56.209Z,99397.72
2023-05-12T12:28:24.636Z,99405.53
2023-05-12T12:30:53.069Z,99412.50
2023-05-12T12:33:21.663Z,99409.75
2023-05-12T12:35:50.005Z,99405.00
2023-05-12T12:38:18.573Z,99407.28
2023-05-12T12:40:47.103Z,99417.34
2023-05-12T12:43:16.997Z,99411.81
2023-05-12T12:45:45.757Z,99412.09
2023-05-12T12:48:14.318Z,99412.63
2023-05-12T12:50:43.029Z,99407.09
2023-05-12T12:53:11.443Z,99413.66
2023-05-12T12:55:40.135Z,99416.34
2023-05-12T12:58:08.527Z,99413.75
2023-05-12T13:00:38.493Z,99414.59
2023-05-12T13:03:08.174Z,99417.88
2023-05-12T13:05:36.601Z,99407.28
2023-05-12T13:08:05.194Z,99414.69
2023-05-12T13:10:34.563Z,99413.56
2023-05-12T13:13:03.033Z,99411.59
2023-05-12T13:15:32.387Z,99419.72
2023-05-12T13:18:02.224Z,99416.75
2023-05-12T13:20:30.848Z,99412.66
2023-05-12T13:22:59.207Z,99410.25
2023-05-12T13:25:27.647Z,99416.44
2023-05-12T13:27:56.044Z,99404.19
2023-05-12T13:30:25.219Z,99409.75
2023-05-12T13:32:54.277Z,99401.91
2023-05-12T13:35:24.401Z,99408.94
2023-05-12T13:37:52.766Z,99400.91
2023-05-12T13:40:21.338Z,99410.16
2023-05-12T13:42:49.764Z,99401.63
2023-05-12T13:45:19.668Z,99411.66
2023-05-12T13:47:48.673Z,99412.00
2023-05-12T13:50:17.286Z,99416.72
2023-05-12T13:52:47.630Z,99417.63
2023-05-12T13:55:20.950Z,99418.88
2023-05-12T13:57:50.396Z,99413.19
2023-05-12T14:00:20.555Z,99399.69
2023-05-12T14:02:49.167Z,99412.00
2023-05-12T14:05:18.651Z,99404.59
2023-05-12T14:07:48.931Z,99409.09
2023-05-12T14:10:18.665Z,99416.91
2023-05-12T14:12:47.983Z,99419.38
2023-05-12T14:17:48.173Z,99409.81
2023-05-12T14:20:16.854Z,99410.38
2023-05-12T14:22:45.249Z,99411.69
2023-05-12T14:25:16.266Z,99408.34
2023-05-12T14:27:45.393Z,99416.34
2023-05-12T14:30:15.271Z,99416.34
2023-05-12T14:32:43.848Z,99414.91
2023-05-12T14:35:12.283Z,99417.41
2023-05-12T14:37:40.714Z,99416.78
2023-05-12T14:40:11.009Z,99425.66
2023-05-12T14:42:40.807Z,99422.88
2023-05-12T14:45:10.736Z,99424.91
2023-05-12T14:47:39.150Z,99423.88
2023-05-12T14:50:08.795Z,99418.38
2023-05-12T14:52:38.539Z,99417.53
2023-05-12T14:55:11.901Z,99419.19
2023-05-12T14:57:43.110Z,99430.53
2023-05-12T15:00:14.416Z,99426.00
2023-05-12T15:02:45.615Z,99425.94
2023-05-12T15:05:15.456Z,99421.94
2023-05-12T15:07:43.820Z,99417.72
2023-05-12T15:10:12.945Z,99417.44
2023-05-12T15:12:42.707Z,99419.06
2023-05-12T15:15:12.206Z,99421.84
2023-05-12T15:17:40.695Z,99421.03
2023-05-12T15:20:10.988Z,99423.81
2023-05-12T15:22:39.638Z,99420.22
2023-05-12T15:25:10.157Z,99419.69
2023-05-12T15:27:38.610Z,99417.72
2023-05-12T15:30:11.081Z,99419.06
2023-05-12T15:32:41.182Z,99413.41
2023-05-12T15:35:10.671Z,99418.88
2023-05-12T15:37:39.100Z,99421.84
2023-05-12T15:40:09.918Z,99417.66
2023-05-12T15:42:38.385Z,99421.75
2023-05-12T15:45:10.181Z,99415.59
2023-05-12T15:47:38.697Z,99417.47
2023-05-12T15:50:10.426Z,99417.66
2023-05-12T15:52:38.848Z,99412.66
2023-05-12T15:55:08.177Z,99419.00
2023-05-12T15:57:36.592Z,99417.38
2023-05-12T16:00:07.908Z,99416.84
2023-05-12T16:02:36.345Z,99415.50
2023-05-12T16:05:05.381Z,99408.63
2023-05-12T16:07:33.813Z,99417.56
2023-05-12T16:10:03.463Z,99409.63
2023-05-12T16:12:31.922Z,99409.72
2023-05-12T16:15:00.507Z,99421.47
2023-05-12T16:17:30.279Z,99417.03
2023-05-12T16:19:58.702Z,99418.16
2023-05-12T16:22:27.105Z,99413.22
2023-05-12T16:24:56.530Z,99422.97
2023-05-12T16:27:25.558Z,99423.28
2023-05-12T16:29:54.605Z,99422.47
2023-05-12T16:32:23.362Z,99419.69
2023-05-12T16:34:53.051Z,99423.91
2023-05-12T16:37:22.846Z,99436.44
2023-05-12T16:39:51.324Z,99425.09
2023-05-12T16:42:19.769Z,99432.38
2023-05-12T16:44:48.814Z,99451.59
2023-05-12T16:47:17.370Z,99443.34
2023-05-12T16:49:45.818Z,99442.59
2023-05-12T16:52:15.588Z,99438.25
2023-05-12T16:54:43.969Z,99435.25
2023-05-12T16:57:12.321Z,99436.72
2023-05-12T16:59:40.675Z,99447.56
2023-05-12T17:02:09.837Z,99445.94
2023-05-12T17:04:39.456Z,99451.47
2023-05-12T17:07:07.801Z,99448.41
2023-05-12T17:09:37.883Z,99449.81
2023-05-12T17:12:08.384Z,99450.66
2023-05-12T17:14:37.218Z,99454.53
2023-05-12T17:17:05.890Z,99454.34
2023-05-12T17:19:34.705Z,99453.56
2023-05-12T17:22:03.722Z,99451.72
2023-05-12T17:24:32.467Z,99451.78
2023-05-12T17:27:02.244Z,99459.88
2023-05-12T17:29:30.660Z,99455.25
2023-05-12T17:31:59.986Z,99462.78
2023-05-12T17:34:28.356Z,99454.56
2023-05-12T17:36:57.199Z,99454.34
2023-05-12T17:39:25.552Z,99463.53
2023-05-12T17:41:53.918Z,99462.50
2023-05-12T17:44:23.708Z,99469.47
2023-05-12T17:46:52.150Z,99474.75
2023-05-12T17:49:20.613Z,99471.47
2023-05-12T17:51:49.468Z,99475.38
2023-05-12T17:54:17.939Z,99467.06
2023-05-12T17:56:47.216Z,99477.00
2023-05-12T17:59:15.598Z,99476.69
2023-05-12T18:01:45.278Z,99469.75
2023-05-12T18:04:14.028Z,99475.81
2023-05-12T18:06:42.432Z,99468.84
2023-05-12T18:09:10.997Z,99466.91
2023-05-12T18:11:39.725Z,99469.69
2023-05-12T18:14:08.426Z,99472.44
2023-05-12T18:16:36.865Z,99474.38
2023-05-12T18:19:06.714Z,99473.03
2023-05-12T18:21:35.198Z,99471.72
2023-05-12T18:24:03.829Z,99476.69
2023-05-12T18:26:32.305Z,99479.47
2023-05-12T18:29:00.689Z,99470.34
2023-05-12T18:31:29.137Z,99478.94
2023-05-12T18:33:57.608Z,99477.31
2023-05-12T18:36:28.196Z,99484.78
2023-05-12T18:38:56.595Z,99486.72
2023-05-12T18:41:25.130Z,99483.13
2023-05-12T18:43:53.970Z,99486.22
2023-05-12T18:46:22.414Z,99487.63
2023-05-12T18:48:51.141Z,99497.34
2023-05-12T18:51:19.754Z,99496.56
2023-05-12T18:53:50.088Z,99499.09
2023-05-12T18:56:18.609Z,99498.88
2023-05-12T18:58:46.967Z,99495.84
2023-05-12T19:01:17.062Z,99500.88
2023-05-12T19:03:45.807Z,99499.75
2023-05-12T19:06:14.767Z,99505.25
2023-05-12T19:08:43.530Z,99506.88
2023-05-12T19:11:13.391Z,99508.53
2023-05-12T19:13:45.389Z,99497.47
2023-05-12T19:16:14.406Z,99508.00
2023-05-12T19:18:43.111Z,99507.75
2023-05-12T19:21:11.618Z,99503.94
2023-05-12T19:23:40.021Z,99498.69
2023-05-12T19:26:10.064Z,99505.34
2023-05-12T19:28:39.927Z,99504.28
2023-05-12T19:31:08.401Z,99512.66
2023-05-12T19:33:36.898Z,99511.88
2023-05-12T19:36:05.921Z,99518.00
2023-05-12T19:38:34.342Z,99516.66
2023-05-12T19:41:02.873Z,99516.34
2023-05-12T19:43:31.287Z,99509.97
2023-05-12T19:46:01.019Z,99513.88
2023-05-12T19:48:29.622Z,99524.97
2023-05-12T19:50:58.106Z,99520.53
2023-05-12T19:53:26.870Z,99523.06
2023-05-12T19:55:55.306Z,99525.28
2023-05-12T19:58:23.634Z,99526.72
2023-05-12T20:00:52.102Z,99523.13
2023-05-12T20:03:22.075Z,99530.28
2023-05-12T20:05:50.487Z,99529.47
2023-05-12T20:08:18.826Z,99521.97
2023-05-12T20:10:47.154Z,99525.88
2023-05-12T20:13:15.532Z,99525.59
2023-05-12T20:15:44.160Z,99528.66
2023-05-12T20:18:14.663Z,99524.22
2023-05-12T20:20:44.742Z,99521.44
2023-05-12T20:23:13.131Z,99521.19
2023-05-12T20:25:41.490Z,99521.44
2023-05-12T20:28:11.786Z,99520.63
2023-05-12T20:30:41.037Z,99510.69
2023-05-12T20:33:09.428Z,99518.16
2023-05-12T20:35:37.792Z,99520.09
2023-05-12T20:38:07.568Z,99516.22
2023-05-12T20:40:36.117Z,99507.91
2023-05-12T20:43:04.841Z,99512.31
2023-05-12T20:45:33.717Z,99512.63
2023-05-12T20:48:02.403Z,99510.69
2023-05-12T20:50:30.884Z,99512.09
2023-05-12T20:52:59.387Z,99513.19
2023-05-12T20:55:29.229Z,99520.97
2023-05-12T20:57:57.605Z,99513.50
2023-05-12T21:00:26.044Z,99517.66
2023-05-12T21:02:55.560Z,99514.91
2023-05-12T21:05:24.057Z,99514.06
2023-05-12T21:07:52.472Z,99511.59
2023-05-12T21:10:21.435Z,99525.75
2023-05-12T21:12:51.983Z,99513.00
2023-05-12T21:15:20.691Z,99516.31
2023-05-12T21:17:49.481Z,99519.91
2023-05-12T21:20:17.872Z,99512.72
2023-05-12T21:22:46.685Z,99508.00
2023-05-12T21:25:15.122Z,99505.25
2023-05-12T21:27:43.546Z,99512.44
2023-05-12T21:30:13.997Z,99506.91
2023-05-12T21:32:42.426Z,99514.06
2023-05-12T21:35:11.707Z,99503.59
2023-05-12T21:37:40.349Z,99511.38
2023-05-12T21:40:11.226Z,99500.06
2023-05-12T21:42:39.662Z,99516.66
2023-05-12T21:45:10.141Z,99511.41
2023-05-12T21:47:39.936Z,99507.81
2023-05-12T21:50:09.041Z,99511.69
2023-05-12T21:52:37.464Z,99507.00
2023-05-12T21:55:07.172Z,99513.94
2023-05-12T21:57:36.143Z,99509.78
2023-05-12T22:00:05.659Z,99512.03
2023-05-12T22:02:34.065Z,99514.28
2023-05-12T22:05:05.729Z,99513.75
2023-05-12T22:07:34.066Z,99517.34
2023-05-12T22:10:02.399Z,99517.03
2023-05-12T22:12:30.768Z,99515.94
2023-05-12T22:14:59.297Z,99514.28
2023-05-12T22:17:27.733Z,99515.09
2023-05-12T22:19:56.339Z,99515.94
2023-05-12T22:22:26.448Z,99523.41
2023-05-12T22:24:54.834Z,99510.66
2023-05-12T22:27:23.296Z,99515.09
2023-05-12T22:29:51.651Z,99509.88
2023-05-12T22:32:20.012Z,99507.91
2023-05-12T22:34:48.352Z,99513.44
2023-05-12T22:37:17.058Z,99506.53
2023-05-12T22:39:46.808Z,99517.91
2023-05-12T22:42:15.183Z,99509.59
2023-05-12T22:44:43.578Z,99509.06
2023-05-12T22:47:12.052Z,99510.19
2023-05-12T22:49:40.745Z,99511.31
2023-05-12T22:52:09.201Z,99508.00
2023-05-12T22:54:37.557Z,99513.28
2023-05-12T22:57:07.690Z,99506.13
2023-05-12T22:59:36.039Z,99504.16
2023-05-12T23:02:04.390Z,99502.53
2023-05-12T23:04:32.743Z,99512.44
2023-05-12T23:07:01.060Z,99508.28
2023-05-12T23:09:29.420Z,99513.00
2023-05-12T23:11:57.786Z,99499.97
2023-05-12T23:14:27.506Z,99510.47
2023-05-12T23:16:55.915Z,99506.31
2023-05-12T23:19:24.404Z,99508.78
2023-05-12T23:21:52.737Z,99504.06
2023-05-12T23:24:21.730Z,99506.31
2023-05-12T23:26:50.652Z,99506.09
2023-05-12T23:29:19.040Z,99495.84
2023-05-12T23:31:48.920Z,99498.09
2023-05-12T23:34:17.506Z,99505.84
2023-05-12T23:36:45.988Z,99505.84
2023-05-12T23:39:14.692Z,99504.19
2023-05-12T23:41:43.380Z,99500.31
2023-05-12T23:44:11.761Z,99503.09
2023-05-12T23:46:40.255Z,99505.03
2023-05-12T23:49:10.382Z,99494.22
2023-05-12T23:51:38.777Z,99501.69
2023-05-12T23:54:07.260Z,99487.06
2023-05-12T23:56:35.691Z,99489.81
2023-05-12T23:59:04.239Z,99492.59
